sensor_id;sensor_type;location;lat;lon;timestamp;temperature;humidity
42803;DHT22;28447;48.682;9.022;2023-06-22T04:00:40;18.50;99.90
42803;DHT22;28447;48.682;9.022;2023-06-22T04:03:06;18.60;99.90
42803;DHT22;28447;48.682;9.022;2023-06-22T04:05:32;18.60;99.90
42803;DHT22;28447;48.682;9.022;2023-06-22T04:07:58;18.70;99.90
42803;DHT22;28447;48.682;9.022;2023-06-22T04:10:24;18.60;99.90
42803;DHT22;28447;48.682;9.022;2023-06-22T04:12:49;18.70;99.90
42803;DHT22;28447;48.682;9.022;2023-06-22T04:15:15;18.60;99.90
42803;DHT22;28447;48.682;9.022;2023-06-22T04:17:41;18.80;99.90
42803;DHT22;28447;48.682;9.022;2023-06-22T04:20:07;18.70;99.90
42803;DHT22;28447;48.682;9.022;2023-06-22T04:22:33;18.70;99.90
42803;DHT22;28447;48.682;9.022;2023-06-22T04:24:58;18.80;99.90
42803;DHT22;28447;48.682;9.022;2023-06-22T04:27:24;18.90;99.90
42803;DHT22;28447;48.682;9.022;2023-06-22T04:29:49;18.90;99.90
42803;DHT22;28447;48.682;9.022;2023-06-22T04:32:17;18.90;99.90
42803;DHT22;28447;48.682;9.022;2023-06-22T04:34:43;19.00;99.90
42803;DHT22;28447;48.682;9.022;2023-06-22T04:37:09;19.00;99.90
42803;DHT22;28447;48.682;9.022;2023-06-22T04:39:34;19.10;99.90
42803;DHT22;28447;48.682;9.022;2023-06-22T04:42:00;19.10;99.90
42803;DHT22;28447;48.682;9.022;2023-06-22T04:44:26;19.30;99.90
42803;DHT22;28447;48.682;9.022;2023-06-22T04:46:53;19.40;99.90
42803;DHT22;28447;48.682;9.022;2023-06-22T04:49:34;19.40;99.90
42803;DHT22;28447;48.682;9.022;2023-06-22T04:52:11;19.40;99.90
42803;DHT22;28447;48.682;9.022;2023-06-22T04:54:38;19.60;99.90
42803;DHT22;28447;48.682;9.022;2023-06-22T04:57:06;19.70;99.90
42803;DHT22;28447;48.682;9.022;2023-06-22T04:59:35;19.70;99.90
42803;DHT22;28447;48.682;9.022;2023-06-22T05:02:02;19.90;99.90
42803;DHT22;28447;48.682;9.022;2023-06-22T05:04:29;20.10;99.90
42803;DHT22;28447;48.682;9.022;2023-06-22T05:06:59;20.00;99.90
42803;DHT22;28447;48.682;9.022;2023-06-22T05:09:25;20.20;99.90
42803;DHT22;28447;48.682;9.022;2023-06-22T05:11:51;20.30;99.90
42803;DHT22;28447;48.682;9.022;2023-06-22T05:14:17;20.30;99.90
42803;DHT22;28447;48.682;9.022;2023-06-22T05:16:43;20.50;99.90
42803;DHT22;28447;48.682;9.022;2023-06-22T05:19:10;20.50;99.90
42803;DHT22;28447;48.682;9.022;2023-06-22T05:21:36;20.60;99.90
42803;DHT22;28447;48.682;9.022;2023-06-22T05:24:02;20.80;99.90
42803;DHT22;28447;48.682;9.022;2023-06-22T05:26:32;20.80;99.90
42803;DHT22;28447;48.682;9.022;2023-06-22T05:28:58;21.00;99.90
42803;DHT22;28447;48.682;9.022;2023-06-22T05:31:24;21.10;99.90
42803;DHT22;28447;48.682;9.022;2023-06-22T05:33:51;21.00;99.90
42803;DHT22;28447;48.682;9.022;2023-06-22T05:36:17;21.10;99.90
42803;DHT22;28447;48.682;9.022;2023-06-22T05:38:45;21.30;99.90
42803;DHT22;28447;48.682;9.022;2023-06-22T05:41:11;21.30;99.90
42803;DHT22;28447;48.682;9.022;2023-06-22T05:43:37;21.20;99.90
42803;DHT22;28447;48.682;9.022;2023-06-22T05:46:03;21.30;99.90
42803;DHT22;28447;48.682;9.022;2023-06-22T05:48:29;21.40;99.90
42803;DHT22;28447;48.682;9.022;2023-06-22T05:50:54;21.50;99.90
42803;DHT22;28447;48.682;9.022;2023-06-22T05:53:20;21.50;99.90
42803;DHT22;28447;48.682;9.022;2023-06-22T05:55:46;21.50;99.90
42803;DHT22;28447;48.682;9.022;2023-06-22T05:58:12;21.50;99.90
42803;DHT22;28447;48.682;9.022;2023-06-22T06:00:39;21.40;99.90
42803;DHT22;28447;48.682;9.022;2023-06-22T06:03:05;21.40;99.90
42803;DHT22;28447;48.682;9.022;2023-06-22T06:05:32;21.40;99.90
42803;DHT22;28447;48.682;9.022;2023-06-22T06:07:59;21.60;99.90
42803;DHT22;28447;48.682;9.022;2023-06-22T06:10:25;21.60;99.90
42803;DHT22;28447;48.682;9.022;2023-06-22T06:12:51;21.80;99.90
42803;DHT22;28447;48.682;9.022;2023-06-22T06:15:16;21.80;99.90
42803;DHT22;28447;48.682;9.022;2023-06-22T06:17:52;22.10;99.90
42803;DHT22;28447;48.682;9.022;2023-06-22T06:20:20;22.30;99.90
42803;DHT22;28447;48.682;9.022;2023-06-22T06:22:46;22.40;99.90
42803;DHT22;28447;48.682;9.022;2023-06-22T06:25:12;22.60;99.90
42803;DHT22;28447;48.682;9.022;2023-06-22T06:27:42;22.80;99.90
42803;DHT22;28447;48.682;9.022;2023-06-22T06:30:09;22.80;99.90
42803;DHT22;28447;48.682;9.022;2023-06-22T06:32:35;22.50;99.90
42803;DHT22;28447;48.682;9.022;2023-06-22T06:35:01;22.60;99.90
42803;DHT22;28447;48.682;9.022;2023-06-22T06:37:27;22.70;99.90
42803;DHT22;28447;48.682;9.022;2023-06-22T06:39:53;22.80;99.90
42803;DHT22;28447;48.682;9.022;2023-06-22T06:42:18;23.20;99.90
42803;DHT22;28447;48.682;9.022;2023-06-22T06:44:45;23.00;99.90
42803;DHT22;28447;48.682;9.022;2023-06-22T06:47:11;23.40;99.90
42803;DHT22;28447;48.682;9.022;2023-06-22T06:49:36;23.30;99.90
42803;DHT22;28447;48.682;9.022;2023-06-22T06:52:02;23.40;99.90
42803;DHT22;28447;48.682;9.022;2023-06-22T06:54:28;23.60;99.90
42803;DHT22;28447;48.682;9.022;2023-06-22T06:56:53;24.20;99.90
42803;DHT22;28447;48.682;9.022;2023-06-22T06:59:19;24.60;99.90
42803;DHT22;28447;48.682;9.022;2023-06-22T07:01:45;24.60;99.90
42803;DHT22;28447;48.682;9.022;2023-06-22T07:04:10;24.70;99.90
42803;DHT22;28447;48.682;9.022;2023-06-22T07:06:36;24.80;99.90
42803;DHT22;28447;48.682;9.022;2023-06-22T07:09:03;24.50;99.90
42803;DHT22;28447;48.682;9.022;2023-06-22T07:11:28;24.70;99.90
42803;DHT22;28447;48.682;9.022;2023-06-22T07:13:54;24.90;99.90
42803;DHT22;28447;48.682;9.022;2023-06-22T07:16:20;25.00;99.90
42803;DHT22;28447;48.682;9.022;2023-06-22T07:18:45;25.30;99.90
42803;DHT22;28447;48.682;9.022;2023-06-22T07:21:11;25.40;99.90
42803;DHT22;28447;48.682;9.022;2023-06-22T07:23:36;25.50;99.90
42803;DHT22;28447;48.682;9.022;2023-06-22T07:26:02;25.70;99.90
42803;DHT22;28447;48.682;9.022;2023-06-22T07:28:28;25.60;99.90
42803;DHT22;28447;48.682;9.022;2023-06-22T07:30:56;25.80;99.90
42803;DHT22;28447;48.682;9.022;2023-06-22T07:33:22;25.60;99.90
42803;DHT22;28447;48.682;9.022;2023-06-22T07:35:48;26.00;99.90
42803;DHT22;28447;48.682;9.022;2023-06-22T07:38:14;26.10;99.90
42803;DHT22;28447;48.682;9.022;2023-06-22T07:40:40;26.30;99.90
42803;DHT22;28447;48.682;9.022;2023-06-22T07:43:07;26.30;99.90
42803;DHT22;28447;48.682;9.022;2023-06-22T07:45:34;26.40;99.90
42803;DHT22;28447;48.682;9.022;2023-06-22T07:48:01;26.20;99.90
42803;DHT22;28447;48.682;9.022;2023-06-22T07:50:26;26.60;99.90
42803;DHT22;28447;48.682;9.022;2023-06-22T07:52:52;26.90;99.90
42803;DHT22;28447;48.682;9.022;2023-06-22T07:55:18;27.00;99.90
42803;DHT22;28447;48.682;9.022;2023-06-22T07:57:44;26.90;99.90
42803;DHT22;28447;48.682;9.022;2023-06-22T08:00:10;27.30;99.90
42803;DHT22;28447;48.682;9.022;2023-06-22T08:02:42;27.50;99.90
42803;DHT22;28447;48.682;9.022;2023-06-22T08:05:09;27.20;99.90
42803;DHT22;28447;48.682;9.022;2023-06-22T08:07:38;27.20;99.90
42803;DHT22;28447;48.682;9.022;2023-06-22T08:10:04;27.30;99.90
42803;DHT22;28447;48.682;9.022;2023-06-22T08:12:30;28.00;99.90
42803;DHT22;28447;48.682;9.022;2023-06-22T08:14:56;28.40;99.90
42803;DHT22;28447;48.682;9.022;2023-06-22T08:17:25;27.50;99.90
42803;DHT22;28447;48.682;9.022;2023-06-22T08:19:51;27.50;99.90
42803;DHT22;28447;48.682;9.022;2023-06-22T08:22:17;28.20;99.90
42803;DHT22;28447;48.682;9.022;2023-06-22T08:24:43;28.40;99.90
42803;DHT22;28447;48.682;9.022;2023-06-22T08:27:10;28.20;99.90
42803;DHT22;28447;48.682;9.022;2023-06-22T08:29:37;27.00;99.90
42803;DHT22;28447;48.682;9.022;2023-06-22T08:32:03;26.50;99.90
42803;DHT22;28447;48.682;9.022;2023-06-22T08:34:28;26.70;99.90
42803;DHT22;28447;48.682;9.022;2023-06-22T08:36:54;26.60;99.90
42803;DHT22;28447;48.682;9.022;2023-06-22T08:39:20;27.00;99.90
42803;DHT22;28447;48.682;9.022;2023-06-22T08:41:47;27.70;99.90
42803;DHT22;28447;48.682;9.022;2023-06-22T08:44:12;28.10;99.90
42803;DHT22;28447;48.682;9.022;2023-06-22T08:46:38;27.00;99.90
42803;DHT22;28447;48.682;9.022;2023-06-22T08:49:06;27.50;99.90
42803;DHT22;28447;48.682;9.022;2023-06-22T08:51:32;28.10;99.90
42803;DHT22;28447;48.682;9.022;2023-06-22T08:53:58;27.90;99.90
42803;DHT22;28447;48.682;9.022;2023-06-22T08:56:23;28.20;99.90
42803;DHT22;28447;48.682;9.022;2023-06-22T08:58:49;28.60;99.90
42803;DHT22;28447;48.682;9.022;2023-06-22T09:01:14;28.50;99.90
42803;DHT22;28447;48.682;9.022;2023-06-22T09:03:43;28.50;99.90
42803;DHT22;28447;48.682;9.022;2023-06-22T09:06:08;28.00;99.90
42803;DHT22;28447;48.682;9.022;2023-06-22T09:08:39;27.50;99.90
42803;DHT22;28447;48.682;9.022;2023-06-22T09:11:04;27.20;99.90
42803;DHT22;28447;48.682;9.022;2023-06-22T09:13:31;28.50;99.90
42803;DHT22;28447;48.682;9.022;2023-06-22T09:15:57;27.90;99.90
42803;DHT22;28447;48.682;9.022;2023-06-22T09:18:22;27.40;99.90
42803;DHT22;28447;48.682;9.022;2023-06-22T09:20:48;28.10;99.90
42803;DHT22;28447;48.682;9.022;2023-06-22T09:23:14;29.50;99.90
42803;DHT22;28447;48.682;9.022;2023-06-22T09:25:40;28.50;99.90
42803;DHT22;28447;48.682;9.022;2023-06-22T09:28:06;28.50;99.90
42803;DHT22;28447;48.682;9.022;2023-06-22T09:30:32;28.00;99.90
42803;DHT22;28447;48.682;9.022;2023-06-22T09:32:57;27.90;99.90
42803;DHT22;28447;48.682;9.022;2023-06-22T09:35:23;28.90;99.90
42803;DHT22;28447;48.682;9.022;2023-06-22T09:37:48;28.20;99.90
42803;DHT22;28447;48.682;9.022;2023-06-22T09:40:14;28.20;99.90
42803;DHT22;28447;48.682;9.022;2023-06-22T09:42:42;28.60;99.90
42803;DHT22;28447;48.682;9.022;2023-06-22T09:45:08;28.50;99.90
42803;DHT22;28447;48.682;9.022;2023-06-22T09:47:34;29.10;99.90
42803;DHT22;28447;48.682;9.022;2023-06-22T09:50:00;30.40;99.90
42803;DHT22;28447;48.682;9.022;2023-06-22T09:52:25;31.10;99.90
42803;DHT22;28447;48.682;9.022;2023-06-22T09:54:51;32.00;99.90
42803;DHT22;28447;48.682;9.022;2023-06-22T09:57:17;31.30;99.90
42803;DHT22;28447;48.682;9.022;2023-06-22T09:59:42;31.60;99.90
42803;DHT22;28447;48.682;9.022;2023-06-22T10:02:08;32.50;99.90
42803;DHT22;28447;48.682;9.022;2023-06-22T10:04:34;32.00;99.90
42803;DHT22;28447;48.682;9.022;2023-06-22T10:07:01;31.80;99.90
42803;DHT22;28447;48.682;9.022;2023-06-22T10:09:26;31.50;99.90
42803;DHT22;28447;48.682;9.022;2023-06-22T10:11:52;31.90;99.90
42803;DHT22;28447;48.682;9.022;2023-06-22T10:14:18;31.50;99.90
42803;DHT22;28447;48.682;9.022;2023-06-22T10:16:43;32.20;99.90
42803;DHT22;28447;48.682;9.022;2023-06-22T10:19:09;32.30;99.90
42803;DHT22;28447;48.682;9.022;2023-06-22T10:21:35;32.30;99.80
42803;DHT22;28447;48.682;9.022;2023-06-22T10:24:01;32.30;99.70
42803;DHT22;28447;48.682;9.022;2023-06-22T10:26:35;32.80;99.40
42803;DHT22;28447;48.682;9.022;2023-06-22T10:29:02;33.60;99.30
42803;DHT22;28447;48.682;9.022;2023-06-22T10:31:28;33.80;97.70
42803;DHT22;28447;48.682;9.022;2023-06-22T10:33:54;33.90;97.20
42803;DHT22;28447;48.682;9.022;2023-06-22T10:36:20;34.20;95.60
42803;DHT22;28447;48.682;9.022;2023-06-22T10:38:46;34.40;95.30
42803;DHT22;28447;48.682;9.022;2023-06-22T10:41:13;33.90;94.70
42803;DHT22;28447;48.682;9.022;2023-06-22T10:43:38;32.40;96.90
42803;DHT22;28447;48.682;9.022;2023-06-22T10:46:04;32.90;96.40
42803;DHT22;28447;48.682;9.022;2023-06-22T10:48:30;33.10;97.00
42803;DHT22;28447;48.682;9.022;2023-06-22T10:50:55;33.50;94.10
42803;DHT22;28447;48.682;9.022;2023-06-22T10:53:21;33.60;95.00
42803;DHT22;28447;48.682;9.022;2023-06-22T10:55:47;33.90;94.80
42803;DHT22;28447;48.682;9.022;2023-06-22T10:58:13;33.30;94.30
42803;DHT22;28447;48.682;9.022;2023-06-22T11:00:38;33.40;95.50
42803;DHT22;28447;48.682;9.022;2023-06-22T11:03:04;32.70;95.20
42803;DHT22;28447;48.682;9.022;2023-06-22T11:05:30;32.30;96.50
42803;DHT22;28447;48.682;9.022;2023-06-22T11:07:55;33.00;95.40
42803;DHT22;28447;48.682;9.022;2023-06-22T11:10:21;33.40;94.30
42803;DHT22;28447;48.682;9.022;2023-06-22T11:12:47;33.20;94.40
42803;DHT22;28447;48.682;9.022;2023-06-22T11:15:12;33.10;95.00
42803;DHT22;28447;48.682;9.022;2023-06-22T11:17:38;33.00;95.50
42803;DHT22;28447;48.682;9.022;2023-06-22T11:20:04;32.50;95.90
42803;DHT22;28447;48.682;9.022;2023-06-22T11:22:39;31.80;96.50
42803;DHT22;28447;48.682;9.022;2023-06-22T11:25:05;32.90;95.50
42803;DHT22;28447;48.682;9.022;2023-06-22T11:27:31;32.70;94.60
42803;DHT22;28447;48.682;9.022;2023-06-22T11:29:57;33.10;94.70
42803;DHT22;28447;48.682;9.022;2023-06-22T11:32:23;33.20;94.20
42803;DHT22;28447;48.682;9.022;2023-06-22T11:34:48;33.40;94.30
42803;DHT22;28447;48.682;9.022;2023-06-22T11:37:14;32.90;94.10
42803;DHT22;28447;48.682;9.022;2023-06-22T11:39:41;32.90;96.00
42803;DHT22;28447;48.682;9.022;2023-06-22T11:42:06;33.20;95.50
42803;DHT22;28447;48.682;9.022;2023-06-22T11:44:32;32.70;94.40
42803;DHT22;28447;48.682;9.022;2023-06-22T11:46:58;32.30;95.40
42803;DHT22;28447;48.682;9.022;2023-06-22T11:49:30;32.60;95.80
42803;DHT22;28447;48.682;9.022;2023-06-22T11:51:55;32.80;95.80
42803;DHT22;28447;48.682;9.022;2023-06-22T11:54:21;32.70;95.10
42803;DHT22;28447;48.682;9.022;2023-06-22T11:56:46;32.50;94.20
42803;DHT22;28447;48.682;9.022;2023-06-22T11:59:12;32.40;95.00
42803;DHT22;28447;48.682;9.022;2023-06-22T12:01:39;31.60;96.40
42803;DHT22;28447;48.682;9.022;2023-06-22T12:04:04;31.80;96.50
42803;DHT22;28447;48.682;9.022;2023-06-22T12:06:37;31.60;96.30
42803;DHT22;28447;48.682;9.022;2023-06-22T12:09:04;31.40;94.90
42803;DHT22;28447;48.682;9.022;2023-06-22T12:11:32;31.20;96.80
42803;DHT22;28447;48.682;9.022;2023-06-22T12:13:58;31.80;96.50
42803;DHT22;28447;48.682;9.022;2023-06-22T12:16:30;31.40;96.20
42803;DHT22;28447;48.682;9.022;2023-06-22T12:18:55;31.60;96.60
42803;DHT22;28447;48.682;9.022;2023-06-22T12:21:21;31.70;97.20
42803;DHT22;28447;48.682;9.022;2023-06-22T12:23:47;30.40;96.50
42803;DHT22;28447;48.682;9.022;2023-06-22T12:26:12;30.40;97.10
42803;DHT22;28447;48.682;9.022;2023-06-22T12:28:38;30.70;96.90
42803;DHT22;28447;48.682;9.022;2023-06-22T12:31:04;30.80;97.40
42803;DHT22;28447;48.682;9.022;2023-06-22T12:33:29;30.50;98.00
42803;DHT22;28447;48.682;9.022;2023-06-22T12:35:56;30.70;98.40
42803;DHT22;28447;48.682;9.022;2023-06-22T12:38:22;30.40;98.10
42803;DHT22;28447;48.682;9.022;2023-06-22T12:40:47;29.80;98.00
42803;DHT22;28447;48.682;9.022;2023-06-22T12:43:14;30.40;98.70
42803;DHT22;28447;48.682;9.022;2023-06-22T12:45:40;30.70;98.40
42803;DHT22;28447;48.682;9.022;2023-06-22T12:48:06;30.80;98.50
42803;DHT22;28447;48.682;9.022;2023-06-22T12:50:32;30.80;98.50
42803;DHT22;28447;48.682;9.022;2023-06-22T12:52:57;30.50;98.70
42803;DHT22;28447;48.682;9.022;2023-06-22T12:55:23;30.50;99.10
42803;DHT22;28447;48.682;9.022;2023-06-22T12:57:49;30.10;99.50
42803;DHT22;28447;48.682;9.022;2023-06-22T13:00:15;29.90;99.60
42803;DHT22;28447;48.682;9.022;2023-06-22T13:02:40;29.80;99.90
42803;DHT22;28447;48.682;9.022;2023-06-22T13:05:07;29.90;99.90
42803;DHT22;28447;48.682;9.022;2023-06-22T13:07:32;30.00;99.90
42803;DHT22;28447;48.682;9.022;2023-06-22T13:09:58;30.00;99.90
42803;DHT22;28447;48.682;9.022;2023-06-22T13:12:24;30.20;99.50
42803;DHT22;28447;48.682;9.022;2023-06-22T13:14:49;30.40;99.60
42803;DHT22;28447;48.682;9.022;2023-06-22T13:17:15;29.90;98.00
42803;DHT22;28447;48.682;9.022;2023-06-22T13:19:41;30.30;98.20
42803;DHT22;28447;48.682;9.022;2023-06-22T13:22:26;30.70;97.10
42803;DHT22;28447;48.682;9.022;2023-06-22T13:24:53;30.30;98.30
42803;DHT22;28447;48.682;9.022;2023-06-22T13:27:18;30.30;97.30
42803;DHT22;28447;48.682;9.022;2023-06-22T13:29:44;30.50;98.10
42803;DHT22;28447;48.682;9.022;2023-06-22T13:32:10;30.10;96.40
42803;DHT22;28447;48.682;9.022;2023-06-22T13:34:35;29.80;97.60
42803;DHT22;28447;48.682;9.022;2023-06-22T13:37:01;29.60;96.50
42803;DHT22;28447;48.682;9.022;2023-06-22T13:39:26;29.50;97.20
42803;DHT22;28447;48.682;9.022;2023-06-22T13:41:52;29.50;97.40
42803;DHT22;28447;48.682;9.022;2023-06-22T13:44:18;29.80;97.00
42803;DHT22;28447;48.682;9.022;2023-06-22T13:46:43;29.90;97.30
42803;DHT22;28447;48.682;9.022;2023-06-22T13:49:09;29.60;97.50
42803;DHT22;28447;48.682;9.022;2023-06-22T13:51:35;29.90;96.80
42803;DHT22;28447;48.682;9.022;2023-06-22T13:54:01;29.60;97.80
42803;DHT22;28447;48.682;9.022;2023-06-22T13:56:27;29.90;97.60
42803;DHT22;28447;48.682;9.022;2023-06-22T13:58:52;29.90;97.30
42803;DHT22;28447;48.682;9.022;2023-06-22T14:01:18;30.10;97.20
42803;DHT22;28447;48.682;9.022;2023-06-22T14:03:44;31.10;96.70
42803;DHT22;28447;48.682;9.022;2023-06-22T14:06:12;32.00;95.30
42803;DHT22;28447;48.682;9.022;2023-06-22T14:08:38;34.10;94.30
42803;DHT22;28447;48.682;9.022;2023-06-22T14:11:03;33.30;92.20
42803;DHT22;28447;48.682;9.022;2023-06-22T14:13:29;33.30;92.70
42803;DHT22;28447;48.682;9.022;2023-06-22T14:15:55;33.30;93.10
42803;DHT22;28447;48.682;9.022;2023-06-22T14:18:20;31.70;92.10
42803;DHT22;28447;48.682;9.022;2023-06-22T14:20:48;31.30;92.50
42803;DHT22;28447;48.682;9.022;2023-06-22T14:23:13;31.20;92.00
42803;DHT22;28447;48.682;9.022;2023-06-22T14:25:40;30.70;90.10
42803;DHT22;28447;48.682;9.022;2023-06-22T14:28:05;31.30;87.60
42803;DHT22;28447;48.682;9.022;2023-06-22T14:30:31;31.50;89.20
42803;DHT22;28447;48.682;9.022;2023-06-22T14:32:57;31.90;85.90
42803;DHT22;28447;48.682;9.022;2023-06-22T14:35:23;33.10;82.70
42803;DHT22;28447;48.682;9.022;2023-06-22T14:37:50;32.70;79.10
42803;DHT22;28447;48.682;9.022;2023-06-22T14:40:16;33.00;76.60
42803;DHT22;28447;48.682;9.022;2023-06-22T14:42:41;33.50;75.00
42803;DHT22;28447;48.682;9.022;2023-06-22T14:45:07;33.90;75.50
42803;DHT22;28447;48.682;9.022;2023-06-22T14:47:33;34.10;72.50
42803;DHT22;28447;48.682;9.022;2023-06-22T14:49:58;34.10;71.80
42803;DHT22;28447;48.682;9.022;2023-06-22T14:52:26;32.80;73.50
42803;DHT22;28447;48.682;9.022;2023-06-22T14:54:52;32.30;73.50
42803;DHT22;28447;48.682;9.022;2023-06-22T14:57:18;33.00;73.10
42803;DHT22;28447;48.682;9.022;2023-06-22T14:59:46;32.20;74.80
42803;DHT22;28447;48.682;9.022;2023-06-22T15:02:13;31.60;75.90
42803;DHT22;28447;48.682;9.022;2023-06-22T15:04:38;32.40;77.00
42803;DHT22;28447;48.682;9.022;2023-06-22T15:07:04;31.70;74.30
42803;DHT22;28447;48.682;9.022;2023-06-22T15:09:30;31.60;76.20
42803;DHT22;28447;48.682;9.022;2023-06-22T15:11:56;32.00;75.10
42803;DHT22;28447;48.682;9.022;2023-06-22T15:14:23;32.60;73.80
42803;DHT22;28447;48.682;9.022;2023-06-22T15:16:49;33.10;73.80
42803;DHT22;28447;48.682;9.022;2023-06-22T15:19:15;33.70;70.50
42803;DHT22;28447;48.682;9.022;2023-06-22T15:21:41;32.70;71.40
42803;DHT22;28447;48.682;9.022;2023-06-22T15:24:06;32.50;73.30
42803;DHT22;28447;48.682;9.022;2023-06-22T15:26:32;31.90;72.70
42803;DHT22;28447;48.682;9.022;2023-06-22T15:28:57;31.50;74.20
42803;DHT22;28447;48.682;9.022;2023-06-22T15:31:23;31.60;73.20
42803;DHT22;28447;48.682;9.022;2023-06-22T15:33:49;31.20;74.10
42803;DHT22;28447;48.682;9.022;2023-06-22T15:36:14;30.90;75.20
42803;DHT22;28447;48.682;9.022;2023-06-22T15:38:40;30.90;75.40
42803;DHT22;28447;48.682;9.022;2023-06-22T15:41:05;31.10;75.70
42803;DHT22;28447;48.682;9.022;2023-06-22T15:43:31;30.70;76.20
42803;DHT22;28447;48.682;9.022;2023-06-22T15:45:57;30.30;77.20
42803;DHT22;28447;48.682;9.022;2023-06-22T15:48:23;30.60;77.60
42803;DHT22;28447;48.682;9.022;2023-06-22T15:50:48;30.40;78.50
42803;DHT22;28447;48.682;9.022;2023-06-22T15:53:14;29.90;78.70
42803;DHT22;28447;48.682;9.022;2023-06-22T15:55:40;29.50;80.00
42803;DHT22;28447;48.682;9.022;2023-06-22T15:58:07;29.50;80.30
42803;DHT22;28447;48.682;9.022;2023-06-22T16:00:34;29.30;80.30
42803;DHT22;28447;48.682;9.022;2023-06-22T16:03:00;29.30;81.10
42803;DHT22;28447;48.682;9.022;2023-06-22T16:05:25;29.30;81.70
42803;DHT22;28447;48.682;9.022;2023-06-22T16:07:51;29.40;81.80
42803;DHT22;28447;48.682;9.022;2023-06-22T16:10:17;29.20;82.00
42803;DHT22;28447;48.682;9.022;2023-06-22T16:12:45;28.80;82.50
42803;DHT22;28447;48.682;9.022;2023-06-22T16:15:10;28.90;83.70
42803;DHT22;28447;48.682;9.022;2023-06-22T16:17:36;29.00;82.10
42803;DHT22;28447;48.682;9.022;2023-06-22T16:20:07;28.70;82.10
42803;DHT22;28447;48.682;9.022;2023-06-22T16:22:33;28.60;82.60
42803;DHT22;28447;48.682;9.022;2023-06-22T16:24:59;28.50;82.90
42803;DHT22;28447;48.682;9.022;2023-06-22T16:27:25;28.60;83.20
42803;DHT22;28447;48.682;9.022;2023-06-22T16:29:53;28.70;83.60
42803;DHT22;28447;48.682;9.022;2023-06-22T16:32:19;29.00;84.00
42803;DHT22;28447;48.682;9.022;2023-06-22T16:34:44;29.30;83.20
42803;DHT22;28447;48.682;9.022;2023-06-22T16:37:13;28.90;84.00
42803;DHT22;28447;48.682;9.022;2023-06-22T16:39:39;28.90;84.80
42803;DHT22;28447;48.682;9.022;2023-06-22T16:42:05;28.70;84.70
42803;DHT22;28447;48.682;9.022;2023-06-22T16:44:31;28.50;85.30
42803;DHT22;28447;48.682;9.022;2023-06-22T16:46:59;28.40;84.70
42803;DHT22;28447;48.682;9.022;2023-06-22T16:49:26;28.50;85.00
42803;DHT22;28447;48.682;9.022;2023-06-22T16:51:52;28.40;85.70
42803;DHT22;28447;48.682;9.022;2023-06-22T16:54:17;28.40;86.30
42803;DHT22;28447;48.682;9.022;2023-06-22T16:56:44;28.40;86.40
42803;DHT22;28447;48.682;9.022;2023-06-22T16:59:11;28.20;86.60
42803;DHT22;28447;48.682;9.022;2023-06-22T17:01:48;28.30;87.00
42803;DHT22;28447;48.682;9.022;2023-06-22T17:04:16;28.20;87.10
42803;DHT22;28447;48.682;9.022;2023-06-22T17:06:47;28.30;87.10
42803;DHT22;28447;48.682;9.022;2023-06-22T17:09:14;28.00;86.50
42803;DHT22;28447;48.682;9.022;2023-06-22T17:11:41;27.60;85.80
42803;DHT22;28447;48.682;9.022;2023-06-22T17:14:06;27.60;86.60
42803;DHT22;28447;48.682;9.022;2023-06-22T17:16:33;27.80;85.90
42803;DHT22;28447;48.682;9.022;2023-06-22T17:19:00;27.30;85.70
42803;DHT22;28447;48.682;9.022;2023-06-22T17:21:30;27.10;86.30
42803;DHT22;28447;48.682;9.022;2023-06-22T17:24:00;27.10;86.70
42803;DHT22;28447;48.682;9.022;2023-06-22T17:26:26;27.00;86.00
42803;DHT22;28447;48.682;9.022;2023-06-22T17:28:53;26.70;86.00
42803;DHT22;28447;48.682;9.022;2023-06-22T17:31:39;26.60;86.10
42803;DHT22;28447;48.682;9.022;2023-06-22T17:34:13;26.40;86.80
42803;DHT22;28447;48.682;9.022;2023-06-22T17:36:50;26.20;87.30
42803;DHT22;28447;48.682;9.022;2023-06-22T17:39:20;26.20;87.70
42803;DHT22;28447;48.682;9.022;2023-06-22T17:41:47;26.00;88.70
42803;DHT22;28447;48.682;9.022;2023-06-22T17:44:26;25.80;89.70
42803;DHT22;28447;48.682;9.022;2023-06-22T17:46:54;25.60;90.40
42803;DHT22;28447;48.682;9.022;2023-06-22T17:49:20;25.40;90.80
42803;DHT22;28447;48.682;9.022;2023-06-22T17:51:51;25.40;90.80
42803;DHT22;28447;48.682;9.022;2023-06-22T17:54:18;25.30;91.30
42803;DHT22;28447;48.682;9.022;2023-06-22T17:56:50;25.20;91.00
42803;DHT22;28447;48.682;9.022;2023-06-22T17:59:20;25.10;91.20
42803;DHT22;28447;48.682;9.022;2023-06-22T18:01:46;25.00;91.30
42803;DHT22;28447;48.682;9.022;2023-06-22T18:04:17;24.90;91.70
42803;DHT22;28447;48.682;9.022;2023-06-22T18:06:45;24.70;91.80
42803;DHT22;28447;48.682;9.022;2023-06-22T18:09:13;24.80;91.80
42803;DHT22;28447;48.682;9.022;2023-06-22T18:11:46;24.60;92.00
42803;DHT22;28447;48.682;9.022;2023-06-22T18:14:17;24.40;92.30
42803;DHT22;28447;48.682;9.022;2023-06-22T18:16:45;24.30;93.00
42803;DHT22;28447;48.682;9.022;2023-06-22T18:19:13;24.20;93.20
42803;DHT22;28447;48.682;9.022;2023-06-22T18:21:40;24.00;93.80
42803;DHT22;28447;48.682;9.022;2023-06-22T18:24:06;23.70;95.50
42803;DHT22;28447;48.682;9.022;2023-06-22T18:26:32;23.10;98.20
42803;DHT22;28447;48.682;9.022;2023-06-22T18:28:58;22.70;99.80
42803;DHT22;28447;48.682;9.022;2023-06-22T18:31:25;22.40;99.60
42803;DHT22;28447;48.682;9.022;2023-06-22T18:33:55;22.30;99.90
42803;DHT22;28447;48.682;9.022;2023-06-22T18:36:27;22.20;99.90
42803;DHT22;28447;48.682;9.022;2023-06-22T18:38:54;22.10;99.90
42803;DHT22;28447;48.682;9.022;2023-06-22T18:41:42;22.20;99.90
42803;DHT22;28447;48.682;9.022;2023-06-22T18:44:20;22.10;99.90
42803;DHT22;28447;48.682;9.022;2023-06-22T18:46:50;22.10;99.90
42803;DHT22;28447;48.682;9.022;2023-06-22T18:49:17;22.10;99.90
42803;DHT22;28447;48.682;9.022;2023-06-22T18:54:42;22.00;99.90
42803;DHT22;28447;48.682;9.022;2023-06-22T18:57:16;22.00;99.90
42803;DHT22;28447;48.682;9.022;2023-06-22T18:59:59;22.10;99.90
42803;DHT22;28447;48.682;9.022;2023-06-22T19:02:43;22.10;99.90
42803;DHT22;28447;48.682;9.022;2023-06-22T19:10:25;21.90;99.90
42803;DHT22;28447;48.682;9.022;2023-06-22T19:12:52;21.90;99.90
42803;DHT22;28447;48.682;9.022;2023-06-22T19:15:19;21.80;99.90
42803;DHT22;28447;48.682;9.022;2023-06-22T19:17:48;21.70;99.90
42803;DHT22;28447;48.682;9.022;2023-06-22T19:20:18;21.70;99.90
42803;DHT22;28447;48.682;9.022;2023-06-22T19:22:55;21.70;99.90
42803;DHT22;28447;48.682;9.022;2023-06-22T19:25:28;21.50;99.90
42803;DHT22;28447;48.682;9.022;2023-06-22T19:28:10;21.40;99.90
42803;DHT22;28447;48.682;9.022;2023-06-22T19:30:36;21.30;99.90
42803;DHT22;28447;48.682;9.022;2023-06-22T19:33:02;21.20;99.90
42803;DHT22;28447;48.682;9.022;2023-06-22T19:35:33;21.20;99.90